Time;durP1;ratioP1;P1;durP2;ratioP2;P2;SDS_P1;SDS_P2;PMS_P1;PMS_P2;Temp;Humidity;BMP_temperature;BMP_pressure;BME280_temperature;BME280_humidity;BME280_pressure;Samples;Min_cycle;Max_cycle;Signal;HPM_P1;HPM_P2
2022/03/12 00:00:51;;;;;;;18.60;9.63;;;5.60;62.00;;;;;;5044453;28;20091;-75
2022/03/12 00:03:17;;;;;;;17.10;8.90;;;5.70;62.10;;;;;;5040500;28;20036;-75
2022/03/12 00:05:54;;;;;;;19.38;9.70;;;5.70;62.10;;;;;;5041662;28;20025;-75
2022/03/12 00:08:21;;;;;;;16.88;9.13;;;5.70;62.20;;;;;;5039409;28;20028;-75
2022/03/12 00:10:50;;;;;;;18.23;10.20;;;5.70;62.00;;;;;;5042347;28;20064;-75
2022/03/12 00:13:21;;;;;;;17.98;9.52;;;5.70;61.80;;;;;;5039194;28;20029;-75
2022/03/12 00:15:50;;;;;;;17.20;9.23;;;5.70;61.90;;;;;;5045373;28;20064;-75
2022/03/12 00:18:18;;;;;;;16.92;8.55;;;5.70;61.70;;;;;;5047277;28;20075;-75
2022/03/12 00:20:48;;;;;;;16.35;9.30;;;5.70;61.70;;;;;;5042110;28;20020;-75
2022/03/12 00:23:21;;;;;;;18.42;9.07;;;5.70;61.70;;;;;;5042298;28;20060;-75
2022/03/12 00:25:49;;;;;;;19.25;9.07;;;5.70;61.90;;;;;;5040105;28;20220;-75
2022/03/12 00:28:18;;;;;;;17.92;8.63;;;5.70;61.80;;;;;;5045728;28;20454;-75
2022/03/12 00:30:50;;;;;;;21.02;9.68;;;5.70;61.90;;;;;;5042558;28;20028;-75
2022/03/12 00:33:18;;;;;;;18.33;9.40;;;5.60;61.90;;;;;;5041753;28;20086;-75
2022/03/12 00:35:47;;;;;;;17.88;9.98;;;5.60;61.80;;;;;;5042172;28;20025;-75
2022/03/12 00:38:14;;;;;;;18.15;9.40;;;5.60;62.00;;;;;;5043620;28;20116;-75
2022/03/12 00:40:40;;;;;;;18.25;8.85;;;5.60;62.20;;;;;;5045426;28;20067;-75
2022/03/12 00:43:06;;;;;;;22.13;10.05;;;5.50;62.20;;;;;;5040605;28;20024;-75
2022/03/12 00:45:32;;;;;;;18.40;9.23;;;5.50;62.20;;;;;;5046848;28;20027;-75
2022/03/12 00:47:58;;;;;;;19.05;10.25;;;5.50;62.50;;;;;;5041394;28;20051;-75
2022/03/12 00:50:23;;;;;;;20.88;10.27;;;5.40;62.60;;;;;;5043937;28;20029;-76
2022/03/12 00:52:50;;;;;;;21.42;9.80;;;5.40;62.90;;;;;;5041862;28;20408;-75
2022/03/12 00:55:15;;;;;;;19.48;9.48;;;5.40;62.70;;;;;;5044773;28;20078;-75
2022/03/12 00:57:41;;;;;;;20.52;10.50;;;5.40;62.80;;;;;;5044177;28;20459;-76
2022/03/12 01:00:14;;;;;;;18.65;9.20;;;5.40;63.10;;;;;;5040685;28;20025;-75
2022/03/12 01:02:40;;;;;;;17.67;9.20;;;5.40;62.90;;;;;;5043410;28;20064;-75
2022/03/12 01:05:06;;;;;;;22.98;10.02;;;5.40;62.70;;;;;;5042022;28;20069;-75
2022/03/12 01:07:32;;;;;;;18.67;9.75;;;5.40;62.80;;;;;;5043397;28;20025;-75
2022/03/12 01:09:59;;;;;;;17.67;9.18;;;5.40;62.80;;;;;;5037229;28;20040;-75
2022/03/12 01:12:25;;;;;;;17.17;9.63;;;5.40;62.90;;;;;;5042807;28;20021;-75
2022/03/12 01:14:50;;;;;;;18.67;9.45;;;5.40;63.00;;;;;;5045037;28;20469;-75
2022/03/12 01:17:16;;;;;;;17.90;10.05;;;5.40;62.90;;;;;;5040518;28;20463;-75
2022/03/12 01:19:42;;;;;;;23.20;9.50;;;5.40;62.80;;;;;;5041653;28;20095;-75
2022/03/12 01:22:10;;;;;;;19.63;9.52;;;5.40;62.90;;;;;;5044154;28;20029;-75
2022/03/12 01:24:37;;;;;;;17.35;9.40;;;5.40;63.00;;;;;;5043698;28;20041;-75
2022/03/12 01:27:02;;;;;;;16.75;9.48;;;5.40;63.10;;;;;;5034964;28;20021;-75
2022/03/12 01:29:28;;;;;;;23.58;9.57;;;5.40;63.00;;;;;;5040191;28;20385;-75
2022/03/12 01:31:54;;;;;;;18.20;8.88;;;5.40;62.90;;;;;;5044414;28;20480;-75
2022/03/12 01:34:20;;;;;;;15.88;9.05;;;5.40;62.90;;;;;;5046590;28;20125;-75
2022/03/12 01:36:45;;;;;;;20.73;9.70;;;5.30;63.00;;;;;;5048365;28;20535;-75
2022/03/12 01:39:11;;;;;;;17.75;8.77;;;5.40;63.10;;;;;;5045888;28;20036;-75
2022/03/12 01:41:42;;;;;;;16.58;9.63;;;5.30;63.10;;;;;;5046176;28;20025;-74
2022/03/12 01:44:08;;;;;;;26.45;9.80;;;5.40;63.20;;;;;;5046218;28;20025;-75
2022/03/12 01:46:42;;;;;;;18.73;9.48;;;5.40;63.40;;;;;;5042220;28;20032;-74
2022/03/12 01:49:11;;;;;;;17.83;9.07;;;5.40;63.20;;;;;;5047458;28;20049;-75
2022/03/12 01:51:39;;;;;;;32.65;10.05;;;5.40;63.10;;;;;;5038792;28;20087;-75
2022/03/12 01:54:05;;;;;;;21.00;9.35;;;5.40;63.20;;;;;;5044278;28;20513;-75
2022/03/12 01:56:34;;;;;;;19.63;10.10;;;5.40;63.30;;;;;;5047267;28;20025;-75
2022/03/12 01:59:01;;;;;;;17.52;9.32;;;5.40;63.30;;;;;;5042870;28;20104;-75
2022/03/12 02:01:29;;;;;;;21.52;10.63;;;5.40;63.40;;;;;;5043739;28;20078;-75
2022/03/12 02:03:56;;;;;;;22.25;11.00;;;5.40;63.40;;;;;;5045592;28;20036;-75
2022/03/12 02:06:24;;;;;;;18.15;9.63;;;5.30;63.40;;;;;;5038692;28;20021;-75
2022/03/12 02:08:54;;;;;;;18.23;9.38;;;5.40;63.70;;;;;;5048758;28;20017;-75
2022/03/12 02:11:27;;;;;;;18.05;9.52;;;5.40;63.50;;;;;;5047081;28;20025;-75
2022/03/12 02:14:01;;;;;;;21.20;10.23;;;5.30;63.50;;;;;;5045527;28;20021;-75
2022/03/12 02:16:29;;;;;;;17.10;10.07;;;5.40;63.80;;;;;;5039998;28;20079;-75
2022/03/12 02:18:55;;;;;;;16.17;9.23;;;5.30;63.60;;;;;;5049166;28;20033;-75
2022/03/12 02:21:38;;;;;;;17.58;9.77;;;5.40;63.70;;;;;;5045375;28;20025;-75
2022/03/12 02:24:16;;;;;;;20.02;9.38;;;5.30;63.80;;;;;;5041150;28;20032;-75
2022/03/12 02:26:43;;;;;;;18.08;10.63;;;5.30;63.60;;;;;;5042007;28;20098;-75
2022/03/12 02:29:20;;;;;;;19.42;10.70;;;5.30;64.00;;;;;;5043542;28;20022;-75
2022/03/12 02:31:51;;;;;;;19.08;10.27;;;5.30;64.40;;;;;;5045130;28;20401;-75
2022/03/12 02:34:23;;;;;;;23.02;10.35;;;5.30;64.60;;;;;;5042116;28;20024;-76
2022/03/12 02:36:57;;;;;;;16.67;9.63;;;5.30;64.30;;;;;;5041480;28;20036;-75
2022/03/12 02:39:25;;;;;;;16.50;9.80;;;5.20;64.30;;;;;;5046863;28;20044;-75
2022/03/12 02:41:51;;;;;;;19.33;9.75;;;5.20;64.80;;;;;;5038495;28;20037;-75
2022/03/12 02:44:20;;;;;;;18.33;9.65;;;5.20;64.90;;;;;;5042311;28;20041;-75
2022/03/12 02:47:20;;;;;;;21.90;10.88;;;5.20;64.90;;;;;;5045106;28;20485;-75
2022/03/12 02:49:59;;;;;;;17.98;10.00;;;5.10;65.00;;;;;;5019613;28;20475;-75
2022/03/12 02:52:29;;;;;;;19.45;9.98;;;5.10;65.20;;;;;;5058435;28;20444;-74
2022/03/12 02:54:57;;;;;;;22.63;10.30;;;5.10;65.10;;;;;;5097371;23;20044;-78
2022/03/12 02:57:26;;;;;;;21.23;9.70;;;5.10;65.40;;;;;;5065415;28;20188;-78
2022/03/12 02:59:53;;;;;;;22.20;10.30;;;5.10;65.20;;;;;;5071224;28;20027;-78
2022/03/12 03:02:31;;;;;;;21.08;9.95;;;5.10;64.90;;;;;;5066926;28;20156;-76
2022/03/12 03:04:58;;;;;;;15.45;9.38;;;5.10;65.00;;;;;;5070939;28;20081;-77
2022/03/12 03:07:24;;;;;;;16.70;10.45;;;5.00;65.00;;;;;;5073458;28;20084;-79
2022/03/12 03:09:50;;;;;;;16.27;9.63;;;5.00;65.20;;;;;;5072638;28;20031;-78
2022/03/12 03:12:16;;;;;;;19.05;10.07;;;5.00;65.10;;;;;;5075716;28;20100;-77
2022/03/12 03:14:43;;;;;;;18.58;9.85;;;5.10;65.30;;;;;;5072454;28;20039;-79
2022/03/12 03:17:12;;;;;;;18.67;10.25;;;5.10;65.60;;;;;;5074531;28;20012;-79
2022/03/12 03:19:38;;;;;;;22.40;10.52;;;5.00;65.30;;;;;;5079249;28;20029;-79
2022/03/12 03:22:05;;;;;;;20.23;10.55;;;5.00;65.30;;;;;;5076070;28;20052;-79
2022/03/12 03:24:31;;;;;;;22.92;10.43;;;5.00;65.20;;;;;;5076583;28;20505;-78
2022/03/12 03:27:01;;;;;;;20.13;9.93;;;5.00;65.80;;;;;;5073323;28;20032;-80
2022/03/12 03:29:30;;;;;;;21.05;11.00;;;4.90;66.40;;;;;;5073528;28;20032;-78
2022/03/12 03:31:56;;;;;;;26.65;11.45;;;4.90;67.70;;;;;;5071110;28;20055;-78
2022/03/12 03:34:23;;;;;;;19.90;10.85;;;4.80;68.00;;;;;;5073348;28;20096;-78
2022/03/12 03:36:50;;;;;;;18.95;10.73;;;4.80;68.40;;;;;;5072102;28;20063;-79
2022/03/12 03:39:16;;;;;;;20.17;9.95;;;4.70;68.20;;;;;;5069143;28;20052;-78
2022/03/12 03:41:43;;;;;;;17.30;9.50;;;4.70;68.00;;;;;;5073854;28;20030;-80
2022/03/12 03:44:09;;;;;;;20.60;9.93;;;4.60;67.70;;;;;;5070939;28;20050;-78
2022/03/12 03:46:35;;;;;;;18.88;10.18;;;4.60;67.20;;;;;;5073957;28;20381;-80
2022/03/12 03:49:02;;;;;;;27.73;13.45;;;4.60;67.60;;;;;;5072786;28;20021;-77
2022/03/12 03:51:29;;;;;;;26.08;12.60;;;4.60;68.90;;;;;;5072939;28;20113;-79
2022/03/12 03:53:54;;;;;;;31.95;15.20;;;4.60;69.80;;;;;;5070048;28;20037;-79
2022/03/12 03:56:20;;;;;;;26.33;12.70;;;4.50;70.10;;;;;;5074855;28;20040;-79
2022/03/12 03:58:47;;;;;;;25.38;12.63;;;4.50;70.60;;;;;;5074327;28;20042;-78
2022/03/12 04:01:17;;;;;;;22.80;12.55;;;4.50;70.90;;;;;;5073165;28;20058;-78
2022/03/12 04:03:51;;;;;;;21.25;11.82;;;4.40;70.70;;;;;;5066829;28;20029;-78
2022/03/12 04:06:18;;;;;;;;;;;4.40;70.60;;;;;;5068116;28;20102;-79
2022/03/12 04:08:44;;;;;;;21.13;9.82;;;4.40;70.70;;;;;;5070130;28;19930;-79
2022/03/12 04:11:21;;;;;;;21.45;10.52;;;4.40;69.80;;;;;;5072727;28;20104;-79
2022/03/12 04:13:49;;;;;;;16.67;9.43;;;4.40;70.00;;;;;;5071636;28;20476;-76
2022/03/12 04:16:15;;;;;;;20.27;9.48;;;4.40;69.80;;;;;;5074189;28;20021;-79
2022/03/12 04:18:45;;;;;;;16.88;9.75;;;4.50;69.30;;;;;;5072008;28;20435;-79
2022/03/12 04:21:13;;;;;;;16.95;9.93;;;4.50;68.60;;;;;;5071936;28;20027;-79
2022/03/12 04:23:39;;;;;;;22.25;10.23;;;4.50;68.50;;;;;;5066624;28;20032;-77
2022/03/12 04:26:09;;;;;;;20.33;10.60;;;4.50;68.70;;;;;;5069273;28;20036;-78
2022/03/12 04:28:36;;;;;;;17.42;9.25;;;4.50;68.50;;;;;;5066613;28;20477;-78
2022/03/12 04:31:03;;;;;;;18.60;10.18;;;4.50;68.70;;;;;;5071584;28;20110;-79
2022/03/12 04:33:29;;;;;;;22.17;9.32;;;4.40;68.80;;;;;;5074920;28;20115;-80
2022/03/12 04:35:57;;;;;;;19.88;10.45;;;4.40;68.80;;;;;;5072670;28;20078;-79
2022/03/12 04:38:23;;;;;;;20.42;10.45;;;4.50;69.00;;;;;;5075670;28;20025;-79
2022/03/12 04:40:49;;;;;;;18.33;9.63;;;4.40;69.00;;;;;;5068916;28;20032;-79
2022/03/12 04:43:15;;;;;;;18.25;10.23;;;4.50;68.70;;;;;;5072658;28;20087;-78
2022/03/12 04:45:46;;;;;;;18.45;10.50;;;4.50;68.90;;;;;;5074793;28;20516;-79
2022/03/12 04:48:17;;;;;;;19.02;9.25;;;4.50;69.00;;;;;;5069304;28;20077;-79
2022/03/12 04:50:43;;;;;;;20.48;10.27;;;4.50;69.10;;;;;;5072496;28;20031;-79
2022/03/12 04:53:09;;;;;;;24.17;10.02;;;4.50;68.80;;;;;;5069349;28;20017;-79
2022/03/12 04:55:39;;;;;;;17.17;10.07;;;4.60;68.80;;;;;;5073333;28;20230;-80
2022/03/12 04:58:07;;;;;;;18.48;9.85;;;4.60;68.90;;;;;;5070383;28;20040;-79
2022/03/12 05:00:35;;;;;;;16.83;9.43;;;4.60;69.30;;;;;;5077642;28;20152;-78
2022/03/12 05:03:00;;;;;;;22.65;10.35;;;4.60;69.30;;;;;;5074776;28;20031;-79
2022/03/12 05:05:26;;;;;;;19.48;10.77;;;4.60;68.90;;;;;;5077293;28;20040;-77
2022/03/12 05:07:52;;;;;;;19.63;10.85;;;4.60;68.90;;;;;;5078964;28;20025;-79
2022/03/12 05:10:18;;;;;;;19.95;9.88;;;4.60;68.80;;;;;;5077201;28;20048;-78
2022/03/12 05:12:45;;;;;;;19.80;10.40;;;4.60;69.30;;;;;;5071074;28;20809;-79
2022/03/12 05:15:14;;;;;;;22.77;11.30;;;4.60;68.80;;;;;;5070369;28;20111;-80
2022/03/12 05:17:43;;;;;;;22.85;10.38;;;4.60;68.60;;;;;;5078359;28;20061;-79
2022/03/12 05:20:10;;;;;;;25.35;12.93;;;4.60;70.50;;;;;;5075266;28;20050;-79
2022/03/12 05:22:36;;;;;;;28.10;13.15;;;4.50;73.10;;;;;;5079307;28;20032;-79
2022/03/12 05:25:03;;;;;;;28.80;13.23;;;4.50;74.40;;;;;;5073372;28;20051;-78
2022/03/12 05:27:29;;;;;;;25.65;12.70;;;4.50;75.10;;;;;;5077359;28;20024;-79
2022/03/12 05:29:55;;;;;;;23.88;12.93;;;4.40;75.60;;;;;;5072994;28;20025;-79
2022/03/12 05:32:21;;;;;;;24.63;13.23;;;4.40;76.50;;;;;;5070924;28;20103;-79
2022/03/12 05:34:47;;;;;;;25.60;13.07;;;4.40;76.80;;;;;;5077495;28;20073;-79
2022/03/12 05:37:13;;;;;;;30.45;14.18;;;4.30;77.10;;;;;;5079431;28;20024;-78
2022/03/12 05:39:38;;;;;;;26.35;13.50;;;4.20;77.30;;;;;;5075238;28;20039;-79
2022/03/12 05:42:05;;;;;;;24.05;13.00;;;4.20;77.60;;;;;;5077448;28;20024;-79
2022/03/12 05:44:35;;;;;;;30.75;12.60;;;4.20;77.80;;;;;;5070419;28;20028;-77
2022/03/12 05:47:04;;;;;;;25.20;12.93;;;4.20;77.70;;;;;;5072793;28;20358;-79
2022/03/12 05:49:30;;;;;;;23.23;13.68;;;4.20;77.70;;;;;;5073214;28;20298;-79
2022/03/12 05:51:56;;;;;;;25.90;12.85;;;4.20;77.80;;;;;;5074521;28;20508;-77
2022/03/12 05:54:23;;;;;;;21.48;12.50;;;4.20;78.20;;;;;;5075021;28;20052;-79
2022/03/12 05:56:48;;;;;;;28.08;13.55;;;4.10;79.00;;;;;;5074252;28;20036;-78
2022/03/12 05:59:14;;;;;;;25.70;12.95;;;4.20;78.30;;;;;;5076672;28;20024;-79
2022/03/12 06:01:40;;;;;;;29.27;14.00;;;4.20;78.10;;;;;;5079102;28;20054;-78
2022/03/12 06:04:05;;;;;;;20.73;11.48;;;4.20;78.20;;;;;;5070820;28;20115;-79
2022/03/12 06:06:32;;;;;;;25.05;11.63;;;4.20;77.30;;;;;;5076828;28;20029;-77
2022/03/12 06:08:58;;;;;;;23.33;13.00;;;4.30;77.00;;;;;;5075985;28;20017;-79
2022/03/12 06:11:27;;;;;;;22.67;11.30;;;4.30;75.70;;;;;;5077862;28;20119;-79
2022/03/12 06:14:02;;;;;;;26.60;13.23;;;4.40;75.80;;;;;;5074961;28;20480;-78
2022/03/12 06:16:28;;;;;;;23.65;11.60;;;4.40;76.00;;;;;;5073665;28;20386;-77
2022/03/12 06:18:54;;;;;;;23.65;11.27;;;4.40;75.80;;;;;;5074975;28;20074;-79
2022/03/12 06:21:21;;;;;;;21.27;11.98;;;4.50;75.90;;;;;;5074603;28;20025;-79
2022/03/12 06:23:47;;;;;;;25.65;11.73;;;4.50;75.30;;;;;;5076952;28;20043;-79
2022/03/12 06:26:17;;;;;;;20.20;11.43;;;4.50;75.20;;;;;;5076611;28;20029;-79
2022/03/12 06:28:44;;;;;;;24.17;12.15;;;4.60;74.90;;;;;;5078710;28;20032;-77
2022/03/12 06:31:12;;;;;;;28.35;11.45;;;4.60;74.90;;;;;;5076585;28;20016;-80
2022/03/12 06:33:37;;;;;;;20.45;11.18;;;4.80;74.70;;;;;;5074335;28;20481;-79
2022/03/12 06:36:03;;;;;;;24.20;11.60;;;4.80;73.40;;;;;;5075204;28;20031;-78
2022/03/12 06:38:34;;;;;;;18.35;10.40;;;4.90;73.10;;;;;;5068648;28;20404;-77
2022/03/12 06:41:00;;;;;;;19.00;11.27;;;5.00;72.70;;;;;;5077096;28;20025;-79
2022/03/12 06:43:28;;;;;;;22.40;10.68;;;5.10;72.20;;;;;;5071700;28;20385;-77
2022/03/12 06:45:57;;;;;;;20.65;11.40;;;5.20;72.30;;;;;;5071348;28;20028;-80
2022/03/12 06:48:23;;;;;;;24.83;12.30;;;5.30;71.70;;;;;;5077124;28;20106;-78
2022/03/12 06:50:48;;;;;;;21.50;12.95;;;5.40;72.70;;;;;;5074221;28;20035;-79
2022/03/12 06:53:14;;;;;;;25.63;13.23;;;5.40;74.00;;;;;;5060994;28;20036;-79
2022/03/12 06:55:41;;;;;;;27.10;12.75;;;5.40;74.30;;;;;;5067937;28;20021;-80
2022/03/12 06:58:08;;;;;;;23.65;12.27;;;5.40;73.60;;;;;;5078209;28;20016;-78
2022/03/12 07:00:35;;;;;;;21.63;12.50;;;5.50;73.80;;;;;;5072142;28;20366;-78
2022/03/12 07:03:01;;;;;;;26.48;12.88;;;5.40;72.80;;;;;;5071139;28;20021;-78
2022/03/12 07:05:28;;;;;;;21.08;12.93;;;5.30;72.70;;;;;;5070782;28;20048;-79
2022/03/12 07:07:55;;;;;;;26.67;13.02;;;5.30;72.50;;;;;;5072824;28;20028;-79
2022/03/12 07:10:21;;;;;;;24.00;13.13;;;5.40;73.00;;;;;;5066665;28;20042;-78
2022/03/12 07:12:48;;;;;;;27.70;12.13;;;5.40;72.80;;;;;;5074274;28;20126;-80
2022/03/12 07:15:15;;;;;;;23.83;12.20;;;5.40;72.90;;;;;;5075875;28;20028;-78
2022/03/12 07:17:42;;;;;;;25.45;13.48;;;5.40;72.90;;;;;;5071004;28;20127;-78
2022/03/12 07:20:09;;;;;;;24.73;13.82;;;5.40;73.00;;;;;;5071895;28;20032;-78
2022/03/12 07:22:35;;;;;;;29.98;13.57;;;5.40;73.10;;;;;;5068032;28;20027;-78
2022/03/12 07:25:01;;;;;;;21.42;12.35;;;5.40;73.10;;;;;;5071971;28;20386;-79
2022/03/12 07:27:27;;;;;;;24.85;13.43;;;5.40;72.90;;;;;;5064867;28;20032;-77
2022/03/12 07:29:53;;;;;;;25.67;12.10;;;5.50;73.10;;;;;;5067277;28;20107;-77
2022/03/12 07:32:20;;;;;;;28.52;13.43;;;5.50;72.60;;;;;;5065957;28;20080;-79
2022/03/12 07:34:47;;;;;;;21.95;12.85;;;5.60;72.20;;;;;;5066337;28;20704;-79
2022/03/12 07:37:13;;;;;;;28.60;13.27;;;5.70;71.60;;;;;;5068761;28;20166;-78
2022/03/12 07:39:39;;;;;;;24.55;13.23;;;5.80;71.70;;;;;;5073184;28;20070;-78
2022/03/12 07:42:06;;;;;;;22.73;12.70;;;5.90;71.40;;;;;;5072673;28;20028;-79
2022/03/12 07:44:32;;;;;;;23.88;12.23;;;5.90;71.30;;;;;;5056306;28;20033;-80
2022/03/12 07:46:59;;;;;;;27.83;12.82;;;6.00;70.90;;;;;;5063259;28;20021;-79
2022/03/12 07:49:25;;;;;;;23.85;13.43;;;6.10;70.70;;;;;;5057161;28;20397;-78
2022/03/12 07:51:52;;;;;;;26.70;13.98;;;6.20;70.20;;;;;;5073469;28;20090;-79
2022/03/12 07:54:17;;;;;;;25.35;13.90;;;6.20;69.70;;;;;;5082624;28;20020;-76
2022/03/12 07:56:44;;;;;;;26.55;13.23;;;6.20;70.70;;;;;;5081459;28;20048;-78
2022/03/12 07:59:11;;;;;;;23.33;12.93;;;6.20;69.80;;;;;;5074813;28;20052;-77
2022/03/12 08:01:37;;;;;;;25.88;13.20;;;6.30;69.70;;;;;;5073190;28;20021;-79
2022/03/12 08:04:04;;;;;;;25.67;13.45;;;6.30;69.40;;;;;;5069609;28;20071;-79
2022/03/12 08:06:30;;;;;;;22.63;12.93;;;6.30;69.10;;;;;;5066564;28;20025;-79
2022/03/12 08:08:57;;;;;;;30.45;12.55;;;6.30;69.10;;;;;;5075951;28;20024;-78
2022/03/12 08:11:27;;;;;;;23.98;13.48;;;6.30;69.20;;;;;;5072862;28;20024;-78
2022/03/12 08:13:55;;;;;;;23.77;13.73;;;6.30;68.70;;;;;;5072375;28;20025;-78
2022/03/12 08:16:21;;;;;;;22.75;12.55;;;6.40;68.60;;;;;;5075941;28;20032;-78
2022/03/12 08:18:47;;;;;;;23.45;13.52;;;6.40;68.50;;;;;;5074952;28;20060;-79
2022/03/12 08:21:14;;;;;;;29.60;14.25;;;6.50;68.50;;;;;;5067967;28;20063;-79
2022/03/12 08:23:40;;;;;;;20.15;11.82;;;6.60;68.20;;;;;;5081403;28;20050;-79
2022/03/12 08:26:06;;;;;;;23.10;12.80;;;6.70;67.70;;;;;;5076531;28;20021;-79
2022/03/12 08:28:34;;;;;;;23.58;13.40;;;6.70;67.40;;;;;;5076289;28;20021;-77
2022/03/12 08:31:03;;;;;;;25.23;13.85;;;6.80;67.50;;;;;;5081380;28;20027;-78
2022/03/12 08:33:29;;;;;;;26.73;12.95;;;7.00;67.40;;;;;;5078659;28;20058;-77
2022/03/12 08:35:56;;;;;;;20.92;12.32;;;7.10;66.90;;;;;;5092846;28;20029;-79
2022/03/12 08:38:22;;;;;;;19.20;12.38;;;7.20;66.10;;;;;;5077502;28;20092;-80
2022/03/12 08:40:48;;;;;;;25.13;12.63;;;7.20;65.80;;;;;;5075114;28;20024;-80
2022/03/12 08:43:14;;;;;;;26.38;12.80;;;7.40;65.90;;;;;;5077492;28;20067;-78
2022/03/12 08:45:40;;;;;;;24.35;14.10;;;7.50;65.60;;;;;;5075063;28;20032;-78
2022/03/12 08:48:05;;;;;;;22.45;11.90;;;7.50;65.00;;;;;;5073122;28;20024;-79
2022/03/12 08:50:32;;;;;;;28.40;13.93;;;7.60;65.20;;;;;;5075261;28;20439;-79
2022/03/12 08:52:58;;;;;;;22.20;13.55;;;7.70;65.80;;;;;;5076424;28;20020;-79
2022/03/12 08:55:25;;;;;;;25.15;13.55;;;7.80;65.40;;;;;;5074002;28;20058;-80
2022/03/12 08:57:52;;;;;;;27.45;14.50;;;7.80;65.10;;;;;;5081666;28;20024;-80
2022/03/12 09:00:19;;;;;;;25.70;14.13;;;7.90;65.50;;;;;;5076249;28;20033;-79
2022/03/12 09:02:47;;;;;;;30.27;15.90;;;8.00;65.60;;;;;;5075177;28;20020;-78
2022/03/12 09:05:14;;;;;;;29.48;14.85;;;8.00;65.80;;;;;;5069414;28;20055;-80
2022/03/12 09:07:41;;;;;;;27.42;13.93;;;8.10;65.70;;;;;;5074665;28;20013;-78
2022/03/12 09:10:11;;;;;;;28.98;15.77;;;8.20;65.50;;;;;;5075257;28;20021;-78
2022/03/12 09:12:40;;;;;;;27.58;13.93;;;8.30;65.50;;;;;;5071669;28;20111;-77
2022/03/12 09:15:08;;;;;;;24.60;13.63;;;8.40;64.90;;;;;;5075648;28;20393;-79
2022/03/12 09:17:34;;;;;;;27.73;14.52;;;8.50;64.70;;;;;;5075981;28;20020;-77
2022/03/12 09:20:01;;;;;;;25.70;13.30;;;8.50;64.50;;;;;;5070982;28;20024;-77
2022/03/12 09:22:26;;;;;;;26.08;13.95;;;8.50;64.10;;;;;;5071484;28;20034;-78
2022/03/12 09:24:52;;;;;;;28.77;14.45;;;8.60;64.10;;;;;;5079363;28;20059;-78
2022/03/12 09:27:18;;;;;;;25.85;14.57;;;8.70;64.30;;;;;;5075838;28;20028;-78
2022/03/12 09:29:43;;;;;;;25.30;15.00;;;8.80;64.50;;;;;;5071856;28;20455;-78
2022/03/12 09:32:09;;;;;;;28.27;13.65;;;8.90;64.10;;;;;;5075263;28;20086;-78
2022/03/12 09:34:37;;;;;;;25.67;14.48;;;8.90;64.30;;;;;;5078685;28;20069;-77
2022/03/12 09:37:06;;;;;;;26.20;15.30;;;9.10;64.80;;;;;;5061551;28;20230;-77
2022/03/12 09:39:32;;;;;;;24.67;14.23;;;9.10;64.50;;;;;;5065000;28;20508;-79
2022/03/12 09:41:58;;;;;;;29.15;14.82;;;9.10;64.10;;;;;;5070045;28;20500;-77
2022/03/12 09:44:24;;;;;;;23.73;14.00;;;9.20;64.10;;;;;;5076263;28;20028;-78
2022/03/12 09:46:50;;;;;;;27.30;13.80;;;9.30;64.10;;;;;;5073120;28;20368;-78
2022/03/12 09:49:16;;;;;;;27.65;14.20;;;9.30;63.80;;;;;;5075123;28;20033;-77
2022/03/12 09:51:43;;;;;;;23.08;13.70;;;9.40;63.20;;;;;;5067932;28;20104;-77
2022/03/12 09:54:11;;;;;;;28.95;15.45;;;9.40;63.10;;;;;;5063092;28;20033;-77
2022/03/12 09:56:37;;;;;;;25.25;13.60;;;9.50;63.40;;;;;;5069624;28;20037;-77
2022/03/12 09:59:06;;;;;;;28.08;15.00;;;9.50;63.40;;;;;;5065639;28;20096;-78
2022/03/12 10:01:32;;;;;;;32.08;15.50;;;9.60;63.40;;;;;;5067883;28;20488;-77
2022/03/12 10:03:58;;;;;;;25.52;13.93;;;9.70;63.40;;;;;;5066400;28;20493;-77
2022/03/12 10:06:24;;;;;;;25.55;14.60;;;9.90;63.40;;;;;;5067380;28;20040;-77
2022/03/12 10:08:52;;;;;;;25.10;14.25;;;10.00;63.10;;;;;;5072080;28;20310;-77
2022/03/12 10:11:18;;;;;;;22.10;13.27;;;10.10;63.10;;;;;;5065595;28;20025;-78
2022/03/12 10:13:44;;;;;;;27.60;14.70;;;10.20;62.70;;;;;;5071588;28;20028;-77
2022/03/12 10:16:11;;;;;;;25.27;13.75;;;10.40;62.90;;;;;;5068892;28;20043;-77
2022/03/12 10:18:36;;;;;;;21.75;12.45;;;10.60;62.80;;;;;;5072732;28;20076;-78
2022/03/12 10:21:03;;;;;;;25.27;13.48;;;10.70;62.00;;;;;;5069980;28;20058;-77
2022/03/12 10:23:29;;;;;;;23.05;12.80;;;10.80;61.90;;;;;;5067781;28;20028;-77
2022/03/12 10:25:54;;;;;;;25.42;13.23;;;10.90;62.30;;;;;;5063839;28;20292;-79
2022/03/12 10:28:20;;;;;;;23.48;12.52;;;11.00;62.20;;;;;;5069751;28;20025;-77
2022/03/12 10:30:46;;;;;;;25.42;12.68;;;11.00;62.40;;;;;;5071267;28;20028;-78
2022/03/12 10:33:21;;;;;;;20.25;12.68;;;11.00;62.50;;;;;;5072483;28;20028;-77
2022/03/12 10:35:47;;;;;;;23.23;12.75;;;11.20;62.60;;;;;;5069980;28;20642;-77
2022/03/12 10:38:14;;;;;;;21.65;11.90;;;11.20;63.00;;;;;;5067216;28;20025;-77
2022/03/12 10:40:40;;;;;;;22.25;11.52;;;11.30;62.80;;;;;;5070870;28;20511;-78
2022/03/12 10:43:13;;;;;;;25.55;12.40;;;11.40;62.70;;;;;;5070878;28;20020;-77
2022/03/12 10:45:55;;;;;;;20.95;12.10;;;11.50;62.80;;;;;;5068053;28;20039;-78
2022/03/12 10:48:22;;;;;;;29.08;12.45;;;11.70;62.30;;;;;;5069825;28;20055;-77
2022/03/12 10:50:51;;;;;;;27.27;13.32;;;11.70;62.00;;;;;;5065065;28;20024;-77
2022/03/12 10:53:17;;;;;;;21.75;12.43;;;11.80;61.60;;;;;;5065583;28;20029;-77
2022/03/12 10:55:49;;;;;;;24.20;12.43;;;11.90;61.50;;;;;;5069418;28;20033;-80
2022/03/12 10:58:24;;;;;;;22.52;12.30;;;11.90;61.30;;;;;;5073483;28;20028;-81
2022/03/12 11:00:55;;;;;;;22.45;12.45;;;12.00;61.20;;;;;;5081789;28;20534;-82
2022/03/12 11:03:23;;;;;;;19.67;12.25;;;12.00;60.90;;;;;;5077034;28;20024;-80
2022/03/12 11:05:52;;;;;;;21.15;11.35;;;12.20;61.20;;;;;;5077018;28;20074;-81
2022/03/12 11:08:21;;;;;;;20.60;11.50;;;12.20;60.80;;;;;;5076680;28;20035;-77
2022/03/12 11:10:52;;;;;;;22.92;13.38;;;12.30;61.10;;;;;;5064283;28;20085;-77
2022/03/12 11:13:28;;;;;;;20.88;11.63;;;12.30;62.20;;;;;;5069732;28;20396;-77
2022/03/12 11:16:35;;;;;;;19.92;10.98;;;12.40;62.80;;;;;;5063839;28;20092;-77
2022/03/12 11:19:10;;;;;;;18.25;10.57;;;12.40;62.20;;;;;;5070579;28;20028;-77
2022/03/12 11:21:52;;;;;;;17.77;10.75;;;12.40;62.80;;;;;;5072012;28;20017;-77
2022/03/12 11:24:26;;;;;;;21.67;10.82;;;12.40;63.50;;;;;;5070836;28;20043;-77
2022/03/12 11:26:53;;;;;;;;;;;12.40;64.30;;;;;;5078249;28;20040;-78
2022/03/12 11:29:24;;;;;;;18.30;9.82;;;12.50;63.80;;;;;;5076566;28;19909;-78
2022/03/12 11:31:51;;;;;;;30.83;14.00;;;12.50;64.20;;;;;;5078309;28;20035;-79
2022/03/12 11:34:20;;;;;;;21.75;10.55;;;12.50;63.50;;;;;;5077637;28;20029;-82
2022/03/12 11:36:55;;;;;;;24.02;11.90;;;12.50;63.80;;;;;;5075742;28;20032;-78
2022/03/12 11:39:28;;;;;;;20.55;11.45;;;12.50;63.20;;;;;;5075166;28;20032;-80
2022/03/12 11:42:11;;;;;;;29.17;13.10;;;12.50;63.60;;;;;;5072761;28;20430;-80
2022/03/12 11:45:03;;;;;;;17.30;9.67;;;12.60;64.60;;;;;;5075976;28;20024;-81
2022/03/12 11:47:31;;;;;;;19.40;10.38;;;12.60;64.70;;;;;;5072961;28;20052;-77
2022/03/12 11:50:01;;;;;;;19.55;9.68;;;12.70;64.60;;;;;;5072446;28;20150;-77
2022/03/12 11:52:27;;;;;;;25.13;10.20;;;12.80;64.60;;;;;;5071007;28;20032;-77
2022/03/12 11:54:57;;;;;;;19.27;9.63;;;12.70;64.80;;;;;;5070981;28;20055;-77
2022/03/12 11:57:30;;;;;;;17.45;10.02;;;12.80;65.10;;;;;;5071012;28;20043;-81
2022/03/12 11:59:57;;;;;;;15.25;8.68;;;12.80;65.70;;;;;;5068366;28;20532;-81
2022/03/12 12:02:31;;;;;;;14.02;8.82;;;12.80;66.40;;;;;;5065861;28;20102;-81
2022/03/12 12:04:59;;;;;;;15.90;8.63;;;12.80;66.00;;;;;;5070851;28;20017;-79
2022/03/12 12:07:34;;;;;;;15.98;10.00;;;12.80;65.90;;;;;;5069453;28;20028;-80
2022/03/12 12:10:00;;;;;;;15.50;9.57;;;12.80;66.40;;;;;;5072476;28;20373;-80
2022/03/12 12:12:34;;;;;;;17.77;9.80;;;12.80;66.60;;;;;;5064603;28;20079;-76
2022/03/12 12:15:04;;;;;;;19.10;10.25;;;12.90;65.30;;;;;;5066086;28;20056;-78
2022/03/12 12:17:33;;;;;;;18.40;9.82;;;12.90;64.90;;;;;;5064327;28;20419;-77
2022/03/12 12:20:00;;;;;;;17.48;10.15;;;12.90;65.00;;;;;;5066800;28;20048;-77
2022/03/12 12:22:27;;;;;;;19.30;10.27;;;13.00;65.10;;;;;;5070595;28;20024;-78
2022/03/12 12:24:55;;;;;;;21.00;10.73;;;13.10;65.20;;;;;;5067736;28;20020;-77
2022/03/12 12:27:23;;;;;;;16.48;10.25;;;13.10;64.90;;;;;;5067139;28;20032;-77
2022/03/12 12:29:56;;;;;;;18.17;10.02;;;13.20;64.70;;;;;;5069168;28;20016;-77
2022/03/12 12:32:24;;;;;;;16.05;9.20;;;13.10;64.30;;;;;;5068584;28;20056;-77
2022/03/12 12:35:04;;;;;;;25.83;9.65;;;13.10;64.40;;;;;;5067808;28;20053;-76
2022/03/12 12:37:44;;;;;;;17.02;9.45;;;13.10;64.70;;;;;;5066665;28;20119;-78
2022/03/12 12:40:20;;;;;;;23.25;10.35;;;13.10;65.00;;;;;;5068851;28;20035;-77
2022/03/12 12:42:45;;;;;;;16.80;9.20;;;13.10;64.80;;;;;;5067541;28;20088;-77